Time;durP1;ratioP1;P1;durP2;ratioP2;P2;SDS_P1;SDS_P2;PMS_P1;PMS_P2;Temp;Humidity;BMP_temperature;BMP_pressure;BME280_temperature;BME280_humidity;BME280_pressure;Samples;Min_cycle;Max_cycle;Signal;HPM_P1;HPM_P2
2022/05/27 00:01:32;;;;;;;2.03;1.55;;;;;;;14.55;61.49;97278.00;4957011;28;20052;-78
2022/05/27 00:04:03;;;;;;;1.92;1.35;;;;;;;14.57;61.35;97273.38;4956277;28;20051;-78
2022/05/27 00:06:32;;;;;;;1.48;1.38;;;;;;;14.60;61.62;97268.53;4956093;28;20050;-78
2022/05/27 00:09:00;;;;;;;3.42;1.48;;;;;;;14.62;61.25;97265.72;4956382;28;20095;-78
2022/05/27 00:11:28;;;;;;;3.72;1.30;;;;;;;14.66;61.56;97260.91;4956604;28;20145;-78
2022/05/27 00:13:56;;;;;;;1.80;1.40;;;;;;;14.71;61.29;97259.31;4956319;28;20092;-78
2022/05/27 00:16:24;;;;;;;4.68;1.30;;;;;;;14.71;61.22;97254.06;4957603;28;20184;-79
2022/05/27 00:18:52;;;;;;;2.38;1.75;;;;;;;14.67;61.31;97250.25;4957240;28;20043;-79
2022/05/27 00:21:22;;;;;;;2.45;1.50;;;;;;;14.68;61.24;97251.03;4956491;28;20461;-79
2022/05/27 00:23:50;;;;;;;2.40;1.40;;;;;;;14.68;61.15;97251.03;4956079;28;20522;-78
2022/05/27 00:26:18;;;;;;;1.88;1.23;;;;;;;14.71;61.73;97254.06;4955769;28;20070;-79
2022/05/27 00:28:45;;;;;;;3.08;1.70;;;;;;;14.72;61.27;97239.97;4955965;28;20049;-78
2022/05/27 00:31:18;;;;;;;3.58;1.50;;;;;;;14.71;61.15;97254.06;4956187;28;20514;-79
2022/05/27 00:33:46;;;;;;;1.50;1.40;;;;;;;14.70;61.12;97251.66;4956847;28;20527;-79
2022/05/27 00:36:15;;;;;;;1.42;1.02;;;;;;;14.70;61.95;97247.22;4955591;28;20117;-79
2022/05/27 00:38:44;;;;;;;1.83;1.00;;;;;;;14.72;61.29;97250.47;4955926;28;20495;-78
2022/05/27 00:41:14;;;;;;;1.90;1.40;;;;;;;14.76;61.65;97241.19;4955900;28;20551;-78
2022/05/27 00:43:43;;;;;;;2.60;1.35;;;;;;;14.82;61.11;97245.69;4955590;28;20126;-79
2022/05/27 00:46:16;;;;;;;3.72;1.42;;;;;;;14.80;61.08;97242.44;4954665;28;20075;-79
2022/05/27 00:48:46;;;;;;;1.27;1.13;;;;;;;14.83;61.60;97236.78;4955567;28;20066;-78
2022/05/27 00:51:18;;;;;;;2.15;1.60;;;;;;;14.89;61.27;97234.38;4955629;28;20085;-78
2022/05/27 00:53:54;;;;;;;2.08;1.45;;;;;;;14.91;61.17;97237.63;4955249;28;20057;-79
2022/05/27 00:56:25;;;;;;;2.60;1.60;;;;;;;14.94;61.09;97237.25;4955053;28;20082;-79
2022/05/27 00:58:58;;;;;;;3.90;1.48;;;;;;;14.92;60.89;97234.81;4955510;28;20126;-78
2022/05/27 01:01:28;;;;;;;1.67;1.27;;;;;;;14.94;60.74;97237.25;4955174;28;20101;-78
2022/05/27 01:03:58;;;;;;;2.95;1.70;;;;;;;14.95;61.11;97241.50;4955698;28;20051;-78
2022/05/27 01:06:25;;;;;;;3.47;1.80;;;;;;;14.95;60.83;97236.25;4955196;28;20109;-79
2022/05/27 01:08:55;;;;;;;3.50;1.55;;;;;;;14.96;61.12;97224.75;4955295;28;20047;-78
2022/05/27 01:11:34;;;;;;;1.50;1.35;;;;;;;14.94;60.76;97232.00;4955583;28;20051;-79
2022/05/27 01:14:14;;;;;;;1.42;1.20;;;;;;;14.91;60.99;97227.13;4954906;28;20491;-79
2022/05/27 01:16:52;;;;;;;4.35;1.98;;;;;;;14.86;60.89;97221.66;4955034;28;20055;-79
2022/05/27 01:22:42;;;;;;;2.35;1.55;;;;;;;14.76;61.20;97220.19;4955072;29;20499;-79
2022/05/27 01:25:33;;;;;;;2.10;1.40;;;;;;;14.73;61.44;97217.94;4955060;28;20062;-79
2022/05/27 01:28:37;;;;;;;5.18;1.60;;;;;;;14.68;61.37;97217.72;4954706;28;20525;-78
2022/05/27 01:31:16;;;;;;;1.42;1.30;;;;;;;14.66;61.66;97217.09;4945355;28;20051;-78
2022/05/27 01:33:55;;;;;;;3.75;1.65;;;;;;;14.65;61.51;97212.03;4954380;28;20055;-78
2022/05/27 01:36:33;;;;;;;1.48;1.33;;;;;;;14.65;61.79;97209.41;4955112;28;20047;-78
2022/05/27 01:39:07;;;;;;;1.40;1.30;;;;;;;14.67;61.59;97212.63;4954642;28;20094;-79
2022/05/27 01:41:44;;;;;;;2.90;1.70;;;;;;;14.68;61.62;97217.72;4955072;28;20478;-78
2022/05/27 01:44:18;;;;;;;1.10;1.00;;;;;;;14.71;61.87;97214.69;4955318;28;20079;-78
2022/05/27 01:46:48;;;;;;;2.00;1.90;;;;;;;14.74;61.77;97214.31;4955152;28;20393;-78
2022/05/27 01:49:30;;;;;;;2.60;1.50;;;;;;;14.79;61.46;97216.38;4954804;28;20055;-78
2022/05/27 01:52:05;;;;;;;2.20;1.50;;;;;;;14.81;61.62;97216.97;4954885;28;20055;-79
2022/05/27 01:54:46;;;;;;;3.17;1.80;;;;;;;14.82;61.45;97218.59;4954871;28;20059;-79
2022/05/27 01:57:17;;;;;;;1.77;1.67;;;;;;;14.84;61.35;97206.06;4957358;28;20055;-79
2022/05/27 01:59:59;;;;;;;2.50;1.60;;;;;;;14.83;60.99;97205.28;4959414;28;20054;-79
2022/05/27 02:02:31;;;;;;;3.03;1.20;;;;;;;14.83;61.18;97207.91;4958691;28;20055;-78
2022/05/27 02:05:04;;;;;;;5.05;1.33;;;;;;;14.82;61.02;97213.34;4958588;28;20288;-78
2022/05/27 02:07:37;;;;;;;3.05;1.65;;;;;;;14.81;61.13;97207.28;4957319;28;20120;-79
2022/05/27 02:10:09;;;;;;;1.73;1.25;;;;;;;14.82;61.56;97208.91;4959332;28;20051;-79
2022/05/27 02:12:40;;;;;;;;;;;;;;;14.88;61.52;97207.31;4981088;28;20110;-79
2022/05/27 08:14:48;;;;;;;4.30;2.60;;;;;;;16.36;61.94;97219.88;5342509;23;20084;-80
2022/05/27 08:17:15;;;;;;;8.73;3.13;;;;;;;16.35;62.09;97212.97;4939533;29;20106;-80
2022/05/27 08:19:43;;;;;;;3.35;2.45;;;;;;;16.35;62.12;97218.25;4939378;29;20047;-81
2022/05/27 08:22:11;;;;;;;4.13;2.30;;;;;;;16.34;62.38;97206.09;4939874;29;20059;-80
2022/05/27 08:24:39;;;;;;;4.88;3.25;;;;;;;16.33;62.32;97205.28;4939815;29;20072;-80
2022/05/27 08:27:11;;;;;;;5.45;2.35;;;;;;;16.35;62.43;97210.34;4938938;29;20512;-80
2022/05/27 08:29:39;;;;;;;4.43;2.42;;;;;;;16.36;62.38;97214.63;4939764;29;20060;-80
2022/05/27 08:32:09;;;;;;;7.00;3.15;;;;;;;16.35;62.33;97212.97;4939255;29;20071;-80
2022/05/27 08:40:20;;;;;;;3.67;2.67;;;;;;;16.32;62.43;97221.28;4939946;29;20052;-79
2022/05/27 08:42:58;;;;;;;4.03;2.53;;;;;;;16.32;62.80;97229.19;4939597;29;20063;-81
2022/05/27 08:45:32;;;;;;;2.85;2.63;;;;;;;16.30;62.70;97224.13;4939363;29;20143;-81
2022/05/27 08:48:06;;;;;;;3.50;2.72;;;;;;;16.28;62.83;97232.22;4939000;29;20055;-78
2022/05/27 08:50:40;;;;;;;6.60;3.00;;;;;;;16.27;62.70;97227.16;4939457;29;20047;-78
2022/05/27 08:53:18;;;;;;;5.03;3.30;;;;;;;16.25;62.56;97234.47;4938868;29;20048;-80
2022/05/27 09:01:26;;;;;;;3.05;2.47;;;;;;;16.19;62.48;97227.34;4939336;29;20133;-78
2022/05/27 09:04:01;;;;;;;5.95;2.83;;;;;;;16.16;62.55;97231.22;4939755;29;20044;-81
2022/05/27 09:06:36;;;;;;;4.43;2.13;;;;;;;16.18;63.04;97229.19;4937968;29;20043;-78
2022/05/27 09:09:07;;;;;;;4.30;2.55;;;;;;;16.18;62.91;97234.44;4939282;29;20086;-81
2022/05/27 09:11:46;;;;;;;2.45;2.20;;;;;;;16.18;63.24;97229.19;4939046;29;20036;-81
2022/05/27 09:14:21;;;;;;;7.47;2.92;;;;;;;16.20;63.18;97228.97;4939001;29;20048;-81
2022/05/27 09:16:57;;;;;;;4.03;2.30;;;;;;;16.19;62.79;97228.16;4938390;29;20056;-80
2022/05/27 09:19:53;;;;;;;4.35;2.25;;;;;;;16.18;62.99;97228.34;4938883;29;20048;-80
2022/05/27 09:22:34;;;;;;;5.57;2.70;;;;;;;16.18;63.24;97217.81;4938880;29;20056;-80
2022/05/27 09:25:15;;;;;;;4.20;2.35;;;;;;;16.20;63.59;97226.34;4938872;29;20085;-80
2022/05/27 09:27:51;;;;;;;3.03;2.22;;;;;;;16.25;63.73;97208.13;4939129;29;20071;-80
2022/05/27 09:30:20;;;;;;;4.57;2.30;;;;;;;16.30;63.34;97210.97;4940860;29;20036;-80
2022/05/27 09:32:57;;;;;;;5.78;3.13;;;;;;;16.34;62.82;97219.28;4939075;29;20075;-80
2022/05/27 09:35:32;;;;;;;8.00;2.63;;;;;;;16.36;62.79;97215.41;4938896;29;20115;-80
2022/05/27 09:38:15;;;;;;;5.15;2.15;;;;;;;16.39;62.83;97209.72;4938997;29;20039;-80
2022/05/27 09:40:48;;;;;;;4.03;2.58;;;;;;;16.44;62.69;97222.28;4938936;29;20060;-81
2022/05/27 09:43:23;;;;;;;3.67;1.98;;;;;;;16.48;62.26;97219.03;4938639;29;20058;-79
2022/05/27 09:45:55;;;;;;;4.75;1.95;;;;;;;16.51;62.04;97227.53;4937989;29;20052;-79
2022/05/27 09:48:23;;;;;;;4.60;2.10;;;;;;;16.51;61.59;97214.38;4938869;29;20071;-80
2022/05/27 09:50:53;;;;;;;3.35;2.40;;;;;;;16.51;61.78;97222.28;4938939;29;20052;-81
2022/05/27 09:53:28;;;;;;;4.05;2.38;;;;;;;16.51;61.44;97211.75;4938807;29;20052;-80
2022/05/27 09:56:02;;;;;;;3.22;1.95;;;;;;;16.55;61.63;97212.97;4938635;29;20036;-80
2022/05/27 09:58:32;;;;;;;3.70;1.98;;;;;;;16.60;62.23;97206.06;4938798;29;20048;-81
2022/05/27 10:01:03;;;;;;;2.47;2.10;;;;;;;16.68;62.11;97202.41;4938133;29;20114;-79
2022/05/27 10:03:36;;;;;;;1.67;1.58;;;;;;;16.75;61.99;97208.50;4938936;29;20060;-80
2022/05/27 10:06:11;;;;;;;5.53;1.98;;;;;;;16.82;61.42;97197.97;4938532;29;20083;-80
2022/05/27 10:08:44;;;;;;;4.68;2.15;;;;;;;16.86;61.29;97196.53;4938819;29;20055;-79
2022/05/27 10:11:23;;;;;;;4.28;2.58;;;;;;;16.93;61.37;97189.41;4938829;29;20048;-80
2022/05/27 10:14:13;;;;;;;3.10;2.08;;;;;;;17.01;61.75;97185.72;4938692;29;20075;-80
2022/05/27 10:16:43;;;;;;;3.33;2.25;;;;;;;17.05;60.89;97187.75;4938127;29;20088;-80
2022/05/27 10:19:14;;;;;;;4.00;2.35;;;;;;;17.11;60.14;97183.47;4940870;29;20063;-80
2022/05/27 10:21:52;;;;;;;2.65;2.08;;;;;;;17.14;60.88;97180.41;4939855;29;20437;-81
2022/05/27 10:24:24;;;;;;;2.17;1.95;;;;;;;17.19;60.11;97183.25;4941902;29;20052;-79
2022/05/27 10:27:06;;;;;;;2.88;2.30;;;;;;;17.28;59.83;97170.63;4941867;29;20058;-81
2022/05/27 10:29:35;;;;;;;3.28;2.30;;;;;;;17.35;60.08;97174.03;4942025;29;20071;-80
2022/05/27 10:32:04;;;;;;;4.10;2.40;;;;;;;17.42;59.35;97163.44;4941868;29;20037;-81
2022/05/27 10:34:45;;;;;;;5.05;2.13;;;;;;;17.49;58.97;97166.84;4941218;29;20052;-80
2022/05/27 10:37:32;;;;;;;4.65;1.77;;;;;;;17.53;58.84;97167.25;4941464;29;20045;-81
2022/05/27 10:40:14;;;;;;;4.85;2.38;;;;;;;17.58;59.02;97165.59;4942051;29;20408;-80
2022/05/27 10:42:51;;;;;;;8.23;1.92;;;;;;;17.64;57.72;97159.44;4942206;29;20076;-80
2022/05/27 10:45:22;;;;;;;6.00;2.38;;;;;;;17.65;57.69;97150.53;4941612;29;20073;-81
2022/05/27 10:48:15;;;;;;;1.83;1.65;;;;;;;17.69;57.84;97158.84;4941345;29;20107;-80
2022/05/27 10:50:52;;;;;;;7.43;2.78;;;;;;;17.69;56.54;97158.84;4940639;29;20040;-80
2022/05/27 10:53:45;;;;;;;4.00;1.70;;;;;;;17.69;56.67;97156.19;4941550;29;20088;-79
2022/05/27 10:56:30;;;;;;;1.83;1.60;;;;;;;17.68;56.36;97158.00;4941133;29;20099;-80
2022/05/27 11:02:09;;;;;;;1.65;1.50;;;;;;;17.76;56.22;97156.16;4941474;29;20052;-80
2022/05/27 11:05:06;;;;;;;1.90;1.63;;;;;;;17.82;55.83;97150.03;4941784;29;20060;-79
2022/05/27 11:07:43;;;;;;;5.82;1.90;;;;;;;17.86;56.08;97145.94;4939021;29;20197;-80
2022/05/27 11:10:29;;;;;;;3.33;1.80;;;;;;;17.89;55.01;97154.25;4941186;29;20052;-79
2022/05/27 11:16:09;;;;;;;7.97;1.80;;;;;;;17.98;54.18;97154.78;4940894;29;20081;-81
2022/05/27 11:18:53;;;;;;;3.20;1.80;;;;;;;18.04;53.31;97159.22;4941635;29;20068;-80
2022/05/27 11:21:41;;;;;;;3.70;1.55;;;;;;;18.09;52.73;97143.53;4941671;29;20101;-80
2022/05/27 11:24:38;;;;;;;2.45;1.35;;;;;;;18.19;53.16;97139.59;4941658;29;20088;-80
2022/05/27 11:27:18;;;;;;;2.88;1.70;;;;;;;18.26;53.08;97137.72;4941118;29;20048;-81
2022/05/27 11:30:00;;;;;;;1.75;1.08;;;;;;;18.30;53.23;97137.06;4941055;29;20080;-80
2022/05/27 11:33:03;;;;;;;3.25;1.45;;;;;;;18.37;52.70;97131.72;4941010;29;20056;-80
2022/05/27 11:35:42;;;;;;;1.40;1.30;;;;;;;18.44;53.22;97126.38;4941511;29;20040;-79
2022/05/27 11:38:31;;;;;;;1.58;1.17;;;;;;;18.50;52.50;97121.00;4941585;29;20100;-80
2022/05/27 11:41:10;;;;;;;2.35;1.25;;;;;;;18.58;52.20;97124.38;4941729;29;20051;-80
2022/05/27 11:43:59;;;;;;;5.25;1.40;;;;;;;18.62;52.25;97122.91;4941132;29;20067;-79
2022/05/27 11:46:48;;;;;;;1.42;1.30;;;;;;;18.66;52.47;97110.88;4941045;29;20052;-80
2022/05/27 11:49:47;;;;;;;1.85;1.13;;;;;;;18.74;52.83;97115.88;4941041;29;20500;-79
2022/05/27 11:52:34;;;;;;;1.30;1.20;;;;;;;18.81;52.88;97108.72;4940410;29;20036;-80
2022/05/27 11:55:21;;;;;;;2.78;1.58;;;;;;;18.86;52.87;97114.13;4941315;29;20056;-80
2022/05/27 11:58:06;;;;;;;2.97;1.52;;;;;;;18.90;51.95;97115.31;4940681;29;20040;-81
2022/05/27 12:00:41;;;;;;;1.88;1.13;;;;;;;18.94;52.02;97110.38;4941879;29;20056;-80
2022/05/27 12:03:16;;;;;;;2.45;1.35;;;;;;;18.97;51.36;97111.78;4942361;29;20076;-81
2022/05/27 12:05:51;;;;;;;1.90;1.52;;;;;;;19.00;51.10;97104.22;4941076;29;20055;-80
2022/05/27 12:08:29;;;;;;;1.65;1.20;;;;;;;19.03;51.25;97097.66;4941208;29;20064;-79
2022/05/27 12:11:03;;;;;;;1.17;1.10;;;;;;;19.09;51.75;97091.50;4941188;29;20095;-79
2022/05/27 12:13:37;;;;;;;2.83;1.63;;;;;;;19.17;50.89;97093.81;4941172;29;20052;-80
2022/05/27 12:16:15;;;;;;;2.72;1.38;;;;;;;19.21;50.10;97091.53;4940768;29;20072;-81
2022/05/27 12:18:48;;;;;;;4.28;1.48;;;;;;;19.21;50.28;97087.03;4941127;29;20060;-80
2022/05/27 12:21:23;;;;;;;;;;;;;;;19.24;50.82;97085.78;4940948;29;20063;-80
2022/05/27 12:23:56;;;;;;;2.28;1.40;;;;;;;19.25;50.40;97079.47;4940679;29;19906;-81
2022/05/27 12:26:31;;;;;;;3.90;1.63;;;;;;;19.28;50.66;97079.81;4940907;29;20048;-80
2022/05/27 12:29:02;;;;;;;1.63;0.95;;;;;;;19.32;50.33;97075.69;4941675;29;20040;-79
2022/05/27 12:31:34;;;;;;;3.70;1.10;;;;;;;19.34;50.40;97070.19;4942014;29;20036;-80
2022/05/27 12:34:22;;;;;;;;;;;;;;;19.40;50.89;97073.78;4942602;29;20042;-80
2022/05/27 12:36:51;;;;;;;2.55;1.40;;;;;;;19.41;49.87;97076.16;4941842;29;19927;-81
2022/05/27 12:39:25;;;;;;;3.90;1.30;;;;;;;19.43;50.35;97068.03;4940637;29;20043;-80
2022/05/27 12:42:11;;;;;;;3.05;1.40;;;;;;;19.47;49.94;97069.97;4940018;29;20074;-81
2022/05/27 12:44:42;;;;;;;1.23;1.13;;;;;;;19.49;50.14;97073.22;4940985;29;20036;-80
2022/05/27 12:47:19;;;;;;;3.05;1.60;;;;;;;19.53;49.40;97076.22;4940780;29;20084;-80
2022/05/27 12:49:53;;;;;;;1.48;1.35;;;;;;;19.53;50.09;97076.22;4940812;29;20040;-81
2022/05/27 12:52:55;;;;;;;1.23;1.00;;;;;;;19.60;49.81;97070.81;4940885;29;20051;-80
2022/05/27 13:00:55;;;;;;;1.40;1.20;;;;;;;19.65;49.81;97069.09;4940003;29;20048;-81
2022/05/27 13:01:39;;;;;;;2.20;1.40;;;;;;;19.67;48.33;97056.44;4940666;29;20056;-79
2022/05/27 13:04:48;;;;;;;1.45;1.35;;;;;;;19.64;48.46;97061.41;4940376;29;20040;-80
2022/05/27 13:07:42;;;;;;;2.42;1.38;;;;;;;19.60;48.47;97061.03;4940430;29;20051;-79
2022/05/27 13:10:36;;;;;;;1.60;1.30;;;;;;;19.60;48.69;97061.03;4940739;29;20043;-79
2022/05/27 13:13:13;;;;;;;1.65;1.25;;;;;;;19.61;48.69;97060.00;4940333;29;20064;-80
2022/05/27 13:15:54;;;;;;;2.50;1.42;;;;;;;19.64;49.12;97062.19;4940538;29;20036;-80
2022/05/27 13:19:00;;;;;;;2.65;1.33;;;;;;;19.65;49.21;97063.78;4940169;29;20036;-80
2022/05/27 13:21:54;;;;;;;3.35;1.10;;;;;;;19.65;48.53;97063.00;4940186;29;20036;-80
2022/05/27 13:24:43;;;;;;;1.00;0.90;;;;;;;19.62;48.68;97058.97;4940494;29;20048;-80
2022/05/27 13:27:28;;;;;;;1.35;1.10;;;;;;;19.61;49.07;97057.34;4939956;29;20053;-80
2022/05/27 13:30:05;;;;;;;3.63;1.15;;;;;;;19.59;49.13;97059.44;4940279;29;20052;-81
2022/05/27 13:32:52;;;;;;;2.63;1.40;;;;;;;19.55;48.82;97058.28;4940398;29;20072;-81
2022/05/27 13:35:36;;;;;;;3.13;1.10;;;;;;;19.50;49.35;97061.59;4940345;29;20092;-80
2022/05/27 13:38:13;;;;;;;3.63;1.05;;;;;;;19.45;49.11;97058.00;4939775;29;20055;-80
2022/05/27 13:40:43;;;;;;;1.58;1.00;;;;;;;19.41;49.69;97047.06;4940460;29;20083;-80
2022/05/27 13:43:17;;;;;;;1.15;1.10;;;;;;;19.39;49.55;97050.97;4940107;29;20044;-79
2022/05/27 13:45:51;;;;;;;2.55;0.75;;;;;;;19.35;49.47;97050.66;4939325;29;20062;-80
2022/05/27 13:48:28;;;;;;;1.45;0.80;;;;;;;19.29;49.72;97057.63;4940456;29;20066;-80
2022/05/27 13:51:08;;;;;;;1.73;1.15;;;;;;;19.24;50.08;97061.97;4940035;29;20036;-80
2022/05/27 13:53:42;;;;;;;1.10;1.00;;;;;;;19.17;50.22;97056.78;4942759;29;20040;-81
2022/05/27 13:56:16;;;;;;;0.95;0.70;;;;;;;19.13;51.09;97060.91;4942774;29;20052;-81
2022/05/27 13:58:59;;;;;;;2.40;1.40;;;;;;;19.07;50.84;97048.59;4943760;29;20066;-80
2022/05/27 14:01:38;;;;;;;4.80;0.93;;;;;;;19.04;50.94;97057.78;4943462;29;20048;-80
2022/05/27 14:04:16;;;;;;;1.30;0.90;;;;;;;19.01;51.25;97058.22;4943232;29;20052;-79
2022/05/27 14:06:45;;;;;;;1.40;1.13;;;;;;;19.00;51.15;97055.78;4943068;29;20047;-80
2022/05/27 14:09:21;;;;;;;2.42;1.13;;;;;;;18.94;51.41;97060.16;4943263;29;20092;-81
2022/05/27 14:11:53;;;;;;;2.03;1.13;;;;;;;18.92;51.53;97064.88;4943233;29;20111;-79
2022/05/27 14:16:59;;;;;;;3.17;1.30;;;;;;;18.86;51.68;97052.53;4254912;27;19924;-80
2022/05/27 14:19:29;;;;;;;1.50;1.30;;;;;;;18.85;52.16;97051.72;4922486;29;20052;-79
2022/05/27 14:25:00;;;;;;;1.20;1.20;;;;;;;18.81;52.15;97049.75;4923574;29;20053;-79
2022/05/27 14:27:31;;;;;;;1.05;1.02;;;;;;;18.79;52.44;97047.34;4923852;29;20117;-79
2022/05/27 14:30:05;;;;;;;2.10;1.10;;;;;;;18.77;52.62;97049.34;4923784;29;20044;-80
2022/05/27 14:32:36;;;;;;;2.03;1.48;;;;;;;18.73;52.22;97041.06;4924238;29;20036;-80
2022/05/27 14:35:09;;;;;;;1.38;1.25;;;;;;;18.71;52.78;97042.31;4925345;29;21063;-80
2022/05/27 14:37:47;;;;;;;2.28;1.02;;;;;;;18.70;53.09;97040.72;4924391;29;20055;-79
2022/05/27 14:40:22;;;;;;;1.55;1.20;;;;;;;18.70;53.19;97035.44;4924094;29;20064;-79
2022/05/27 14:42:56;;;;;;;3.35;1.33;;;;;;;18.69;52.78;97041.72;4924201;29;20060;-80
2022/05/27 14:45:50;;;;;;;1.73;1.42;;;;;;;18.67;53.19;97039.34;4923599;29;20116;-80
2022/05/27 14:48:24;;;;;;;2.67;1.65;;;;;;;18.66;52.70;97035.06;4921993;29;20055;-84
2022/05/27 14:50:55;;;;;;;2.45;0.90;;;;;;;18.66;52.65;97034.25;4924241;29;20083;-84
2022/05/27 14:53:28;;;;;;;2.15;1.27;;;;;;;18.64;52.61;97041.59;4924061;29;20040;-83
2022/05/27 14:56:04;;;;;;;2.85;0.98;;;;;;;18.64;52.59;97046.88;4923964;29;20089;-83
2022/05/27 14:58:38;;;;;;;1.02;0.93;;;;;;;18.62;52.80;97044.47;4923979;29;20028;-84
2022/05/27 15:01:12;;;;;;;1.15;0.70;;;;;;;18.59;52.29;97039.63;4923841;29;20037;-83
2022/05/27 15:03:43;;;;;;;0.60;0.60;;;;;;;18.57;52.49;97035.59;4923460;29;20036;-83
2022/05/27 15:06:18;;;;;;;0.65;0.50;;;;;;;18.55;52.78;97038.44;4923360;29;20040;-83
2022/05/27 15:09:08;;;;;;;6.45;0.93;;;;;;;18.58;53.03;97037.19;4923864;29;20036;-83
2022/05/27 15:11:41;;;;;;;1.23;0.68;;;;;;;18.57;52.72;97035.59;4923728;29;20063;-83
2022/05/27 15:14:28;;;;;;;2.65;0.68;;;;;;;18.56;52.96;97042.69;4923838;29;20051;-83
2022/05/27 15:17:03;;;;;;;1.08;0.60;;;;;;;18.55;53.26;97038.44;4923549;29;20044;-83
2022/05/27 15:19:42;;;;;;;1.58;0.70;;;;;;;18.56;53.79;97039.25;4923065;29;20049;-80
2022/05/27 15:22:14;;;;;;;2.25;0.95;;;;;;;18.56;53.53;97040.06;4923477;29;20053;-79
2022/05/27 15:24:51;;;;;;;3.10;0.50;;;;;;;18.57;53.31;97032.97;4923073;29;20045;-80
2022/05/27 15:33:09;;;;;;;0.47;0.47;;;;;;;18.51;53.84;97043.34;4922554;29;20135;-83
2022/05/27 15:35:47;;;;;;;0.60;0.60;;;;;;;18.51;54.00;97038.06;4922951;29;20040;-83
2022/05/27 15:38:21;;;;;;;1.23;0.60;;;;;;;18.54;53.97;97034.19;4923007;29;20059;-83
2022/05/27 15:40:50;;;;;;;2.30;0.65;;;;;;;18.55;53.39;97035.00;4923161;29;20049;-82
2022/05/27 15:43:24;;;;;;;2.58;0.80;;;;;;;18.51;53.54;97035.44;4923000;29;20063;-83
2022/05/27 15:45:53;;;;;;;1.33;0.90;;;;;;;18.51;53.33;97037.28;4922444;29;20059;-83
2022/05/27 15:48:22;;;;;;;3.33;0.70;;;;;;;18.50;53.40;97020.63;4923310;29;20068;-83
2022/05/27 15:50:54;;;;;;;0.50;0.50;;;;;;;18.48;53.48;97025.31;4923106;29;20040;-83
2022/05/27 15:53:27;;;;;;;1.27;0.80;;;;;;;18.48;53.38;97038.53;4922031;29;20052;-83
2022/05/27 15:55:58;;;;;;;0.80;0.80;;;;;;;18.46;53.70;97030.03;4922670;29;20084;-83
2022/05/27 15:58:28;;;;;;;0.88;0.75;;;;;;;18.44;53.74;97018.06;4922195;29;20084;-83
2022/05/27 16:00:59;;;;;;;2.75;1.10;;;;;;;18.43;53.87;97033.13;4922202;29;20076;-83
2022/05/27 16:03:30;;;;;;;0.73;0.73;;;;;;;18.42;53.94;97026.19;4922522;29;20051;-83
2022/05/27 16:06:04;;;;;;;2.90;1.30;;;;;;;18.39;53.93;97034.56;4922208;29;20036;-83
2022/05/27 16:08:34;;;;;;;2.97;1.00;;;;;;;18.35;54.11;97036.03;4922275;29;20052;-83
2022/05/27 16:11:06;;;;;;;5.07;1.20;;;;;;;18.33;54.36;97030.16;4922090;29;20513;-83
2022/05/27 16:13:37;;;;;;;;;;;;;;;18.36;54.37;97035.00;4922698;29;20055;-82
2022/05/27 16:18:52;;;;;;;2.03;1.30;;;;;;;18.31;54.38;97025.09;4921832;29;20072;-79
2022/05/27 16:21:21;;;;;;;2.10;0.93;;;;;;;18.36;54.92;97021.00;4921906;29;20040;-79
2022/05/27 16:23:51;;;;;;;3.35;1.10;;;;;;;18.37;54.68;97014.69;4922131;29;20101;-80
2022/05/27 16:26:29;;;;;;;0.75;0.70;;;;;;;18.39;54.52;97012.63;4921313;29;20037;-80
2022/05/27 16:29:01;;;;;;;0.77;0.73;;;;;;;18.41;53.70;97015.84;4921921;29;20033;-80
2022/05/27 16:31:33;;;;;;;3.13;1.33;;;;;;;18.39;53.15;97021.38;4921399;29;20045;-80
2022/05/27 16:34:04;;;;;;;1.45;1.10;;;;;;;18.36;53.43;97029.72;4921891;29;20318;-80
2022/05/27 16:36:34;;;;;;;3.55;1.10;;;;;;;18.35;53.93;97012.28;4921467;29;20033;-80
2022/05/27 16:39:04;;;;;;;1.00;0.82;;;;;;;18.34;53.81;97005.38;4921819;29;20041;-79
2022/05/27 16:41:41;;;;;;;3.63;1.13;;;;;;;18.36;53.90;97013.06;4921363;29;20089;-79
2022/05/27 16:44:12;;;;;;;2.15;1.00;;;;;;;18.37;54.18;97010.22;4921827;29;20063;-81
2022/05/27 16:46:41;;;;;;;2.35;0.90;;;;;;;18.38;53.77;97017.09;4921025;29;20052;-79
2022/05/27 16:49:25;;;;;;;3.50;1.05;;;;;;;18.36;53.66;97013.88;4921612;29;20048;-81
2022/05/27 16:51:54;;;;;;;3.33;1.00;;;;;;;18.33;53.68;97009.03;4921528;29;20032;-80
2022/05/27 16:54:23;;;;;;;2.78;1.00;;;;;;;18.30;53.82;97010.31;4921052;29;20088;-81
2022/05/27 16:56:52;;;;;;;0.85;0.85;;;;;;;18.30;53.87;97017.41;4920971;29;20048;-80
2022/05/27 16:59:25;;;;;;;2.13;1.08;;;;;;;18.28;53.41;97011.56;4921098;29;20060;-80
2022/05/27 17:01:53;;;;;;;1.13;0.65;;;;;;;18.25;53.66;97012.78;4920942;29;20112;-80
2022/05/27 17:04:23;;;;;;;2.58;0.93;;;;;;;18.25;53.81;97022.53;4920983;29;20056;-80
2022/05/27 17:06:52;;;;;;;0.82;0.82;;;;;;;18.24;53.97;97021.75;4922159;29;20040;-80
2022/05/27 17:09:21;;;;;;;1.30;1.00;;;;;;;18.26;54.24;97024.16;4922219;29;20040;-79
2022/05/27 17:11:50;;;;;;;2.30;0.93;;;;;;;18.27;53.42;97023.13;4921050;29;20056;-81
2022/05/27 17:14:19;;;;;;;0.82;0.82;;;;;;;18.25;53.20;97023.34;4920900;29;20117;-80
2022/05/27 17:16:50;;;;;;;1.17;0.68;;;;;;;18.25;53.38;97022.53;4920300;29;20037;-81
2022/05/27 17:19:19;;;;;;;1.98;0.73;;;;;;;18.23;53.14;97014.81;4920747;29;20052;-80
2022/05/27 17:21:48;;;;;;;1.30;0.80;;;;;;;18.21;53.08;97021.34;4920689;29;20090;-80
2022/05/27 17:24:17;;;;;;;0.93;0.85;;;;;;;18.18;53.57;97006.78;4920606;29;20059;-80
2022/05/27 17:26:47;;;;;;;1.50;0.75;;;;;;;18.19;53.29;97012.84;4919748;29;20056;-80
2022/05/27 17:29:16;;;;;;;1.48;0.80;;;;;;;18.17;53.25;97014.91;4920869;29;20081;-80
2022/05/27 17:31:45;;;;;;;2.92;0.70;;;;;;;18.14;53.26;97012.72;4920698;29;20046;-79
2022/05/27 17:34:18;;;;;;;1.92;0.77;;;;;;;18.12;53.07;97015.56;4919877;29;20044;-80
2022/05/27 17:36:46;;;;;;;;;;;;;;;18.14;53.42;97018.00;4921145;29;20055;-80
2022/05/27 17:39:18;;;;;;;0.80;0.60;;;;;;;18.12;53.35;97012.91;4920290;29;19923;-80
2022/05/27 17:41:47;;;;;;;1.15;0.85;;;;;;;18.10;53.34;97001.78;4920906;29;20052;-80
2022/05/27 17:44:15;;;;;;;1.58;0.93;;;;;;;18.09;52.89;97006.25;4920459;29;20045;-80
2022/05/27 17:52:18;;;;;;;2.97;0.73;;;;;;;18.02;52.84;97017.91;4921641;29;20044;-80
2022/05/27 17:54:47;;;;;;;1.35;0.60;;;;;;;17.99;52.81;97018.34;4922064;29;20090;-81
2022/05/27 17:57:18;;;;;;;0.90;0.90;;;;;;;17.95;52.92;97017.16;4921225;29;20096;-80
2022/05/27 17:59:46;;;;;;;0.60;0.60;;;;;;;17.91;52.99;97016.81;4920549;29;20088;-80
2022/05/27 18:02:15;;;;;;;1.02;0.70;;;;;;;17.89;53.04;97017.00;4920766;29;20059;-81
2022/05/27 18:04:47;;;;;;;0.88;0.60;;;;;;;17.88;53.09;97011.94;4920394;29;20049;-80
2022/05/27 18:07:17;;;;;;;1.10;0.80;;;;;;;17.84;53.31;97016.88;4920259;29;20069;-80
2022/05/27 18:09:46;;;;;;;1.13;1.02;;;;;;;17.83;53.61;97014.44;4920274;29;20053;-80
2022/05/27 18:12:15;;;;;;;1.98;0.73;;;;;;;17.79;53.63;97018.50;4920235;29;20032;-80
2022/05/27 18:14:43;;;;;;;2.13;0.90;;;;;;;17.77;53.68;97012.63;4918840;29;20099;-81
2022/05/27 18:17:12;;;;;;;1.23;0.95;;;;;;;17.76;54.13;97018.94;4918495;29;20052;-80
2022/05/27 18:19:40;;;;;;;1.05;0.95;;;;;;;17.77;54.20;97023.19;4919630;29;20073;-81
2022/05/27 18:22:10;;;;;;;1.23;0.98;;;;;;;17.74;54.37;97023.63;4920151;29;20055;-80
2022/05/27 18:24:41;;;;;;;0.70;0.70;;;;;;;17.71;54.45;97017.75;4919607;29;20060;-80
2022/05/27 18:27:10;;;;;;;1.10;1.00;;;;;;;17.71;54.77;97020.41;4919637;29;20052;-80
2022/05/27 18:29:39;;;;;;;1.10;1.00;;;;;;;17.71;55.10;97016.97;4920120;29;20123;-80
2022/05/27 18:32:07;;;;;;;0.70;0.70;;;;;;;17.70;54.72;97025.88;4920258;29;20081;-80
2022/05/27 18:34:38;;;;;;;1.20;1.10;;;;;;;17.67;54.86;97006.03;4920365;29;20045;-80
2022/05/27 18:37:06;;;;;;;0.93;0.90;;;;;;;17.66;55.13;97019.44;4920020;29;20049;-80
2022/05/27 18:39:36;;;;;;;2.05;0.75;;;;;;;17.63;55.62;97015.41;4920695;29;20052;-80
2022/05/27 18:42:05;;;;;;;1.70;1.20;;;;;;;17.59;55.33;97011.56;4923205;29;20105;-81
2022/05/27 18:44:35;;;;;;;0.82;0.82;;;;;;;17.57;55.43;97010.97;4923744;29;20085;-80
2022/05/27 18:47:04;;;;;;;2.17;1.13;;;;;;;17.53;55.24;97004.50;4922791;29;20041;-80
2022/05/27 18:49:33;;;;;;;1.90;0.82;;;;;;;17.50;54.96;97010.22;4923482;29;20052;-79
2022/05/27 18:52:02;;;;;;;1.95;1.02;;;;;;;17.48;55.47;97012.28;4922855;29;20049;-81
2022/05/27 18:54:30;;;;;;;5.18;1.20;;;;;;;17.46;55.65;97019.59;4922825;29;20363;-79